Time;durP1;ratioP1;P1;durP2;ratioP2;P2;SDS_P1;SDS_P2;PMS_P1;PMS_P2;Temp;Humidity;BMP_temperature;BMP_pressure;BME280_temperature;BME280_humidity;BME280_pressure;Samples;Min_cycle;Max_cycle;Signal;HPM_P1;HPM_P2
2022/04/26 03:37:37;;;;;;;15.87;12.97;;;10.70;99.90;;;;;;5045328;28;20201;-76
2022/04/26 03:40:23;;;;;;;14.93;12.87;;;10.60;99.90;;;;;;5045524;28;20684;-77
2022/04/26 03:42:50;;;;;;;14.27;12.77;;;10.60;99.90;;;;;;5039801;28;20210;-76
2022/04/26 03:45:18;;;;;;;16.47;12.77;;;10.60;99.90;;;;;;5044132;28;20197;-77
2022/04/26 03:47:45;;;;;;;16.27;13.17;;;10.50;99.90;;;;;;5040681;28;20203;-76
2022/04/26 03:50:13;;;;;;;15.97;12.83;;;10.40;99.90;;;;;;5048940;28;20195;-76
2022/04/26 03:52:42;;;;;;;16.33;12.73;;;10.50;99.90;;;;;;5036895;28;20225;-76
2022/04/26 03:55:10;;;;;;;13.30;11.90;;;10.40;99.90;;;;;;5050805;28;20569;-76
2022/04/26 03:57:46;;;;;;;13.90;11.77;;;10.40;99.90;;;;;;5051882;28;20198;-76
2022/04/26 04:00:14;;;;;;;13.03;11.03;;;10.40;99.90;;;;;;5045691;28;20559;-76
2022/04/26 04:02:41;;;;;;;13.27;10.70;;;10.50;99.90;;;;;;5044197;28;20206;-77
2022/04/26 04:05:09;;;;;;;13.60;11.00;;;10.40;99.90;;;;;;5047946;28;20203;-76
2022/04/26 04:07:37;;;;;;;13.00;10.97;;;10.60;99.90;;;;;;5050110;28;20201;-76
2022/04/26 04:10:09;;;;;;;12.53;10.63;;;10.40;99.90;;;;;;5046568;28;20207;-76
2022/04/26 04:12:37;;;;;;;10.93;9.63;;;10.40;99.90;;;;;;5049023;28;20724;-77
2022/04/26 04:15:05;;;;;;;11.83;9.77;;;10.40;99.90;;;;;;5047970;28;20199;-77
2022/04/26 04:17:33;;;;;;;13.03;9.90;;;10.20;99.90;;;;;;5055980;28;20203;-76
2022/04/26 04:20:00;;;;;;;11.03;9.93;;;10.40;99.90;;;;;;5063276;28;20199;-77
2022/04/26 04:22:27;;;;;;;12.10;8.90;;;10.20;99.90;;;;;;5044528;28;20198;-77
2022/04/26 04:24:58;;;;;;;11.07;9.33;;;10.30;99.90;;;;;;5043194;28;20659;-77
2022/04/26 04:27:27;;;;;;;13.83;10.13;;;10.40;99.90;;;;;;5065428;28;20198;-77
2022/04/26 04:29:55;;;;;;;12.10;9.57;;;10.30;99.90;;;;;;5061461;28;20202;-77
2022/04/26 04:32:22;;;;;;;10.13;8.13;;;10.00;99.90;;;;;;5048087;28;20218;-75
2022/04/26 04:34:57;;;;;;;12.60;9.13;;;10.00;99.90;;;;;;5046184;28;20206;-75
2022/04/26 04:37:25;;;;;;;14.47;9.47;;;10.10;99.90;;;;;;5058394;28;20201;-75
2022/04/26 04:39:52;;;;;;;10.23;8.67;;;10.10;99.90;;;;;;5050971;28;20202;-75
2022/04/26 04:42:21;;;;;;;11.83;9.37;;;10.00;99.90;;;;;;5051212;28;20237;-76
2022/04/26 04:44:51;;;;;;;10.90;9.80;;;10.00;99.90;;;;;;5050617;28;20202;-75
2022/04/26 04:47:19;;;;;;;13.27;9.73;;;9.80;99.90;;;;;;5048884;28;20213;-76
2022/04/26 04:49:46;;;;;;;11.47;9.20;;;9.90;99.90;;;;;;5055824;28;20202;-75
2022/04/26 04:52:39;;;;;;;10.87;9.57;;;9.90;99.90;;;;;;5052612;28;20210;-75
2022/04/26 04:55:08;;;;;;;11.53;9.77;;;9.90;99.90;;;;;;5053020;28;20210;-75
2022/04/26 04:57:35;;;;;;;11.73;10.13;;;9.70;99.90;;;;;;5062755;28;20203;-75
2022/04/26 05:00:09;;;;;;;11.23;9.30;;;9.60;99.90;;;;;;5066119;28;20202;-75
2022/04/26 05:02:36;;;;;;;13.37;9.73;;;9.60;99.90;;;;;;5039533;28;20217;-76
2022/04/26 05:05:05;;;;;;;12.23;10.00;;;9.70;99.90;;;;;;5046600;28;20202;-75
2022/04/26 05:07:32;;;;;;;12.13;9.87;;;9.90;99.90;;;;;;5051611;28;20207;-76
2022/04/26 05:09:59;;;;;;;12.57;8.90;;;10.10;99.90;;;;;;5047733;28;20210;-75
2022/04/26 05:12:27;;;;;;;12.47;10.17;;;10.10;99.90;;;;;;5047513;28;20221;-75
2022/04/26 05:14:54;;;;;;;10.73;9.57;;;10.20;99.90;;;;;;5050818;28;20198;-75
2022/04/26 05:17:23;;;;;;;9.67;8.70;;;10.00;99.90;;;;;;5051458;28;20328;-76
2022/04/26 05:19:50;;;;;;;11.77;9.63;;;10.00;99.90;;;;;;5045172;28;20199;-75
2022/04/26 05:22:18;;;;;;;11.87;10.53;;;10.20;99.90;;;;;;5044561;28;20707;-75
2022/04/26 05:24:57;;;;;;;14.90;10.33;;;10.10;99.90;;;;;;5044059;28;20199;-75
2022/04/26 05:27:25;;;;;;;13.77;10.33;;;10.00;99.90;;;;;;5048854;28;20201;-75
2022/04/26 05:29:53;;;;;;;13.13;9.70;;;10.10;99.90;;;;;;5051585;28;20203;-75
2022/04/26 05:32:21;;;;;;;10.67;9.37;;;10.10;99.90;;;;;;5049902;28;20234;-76
2022/04/26 05:34:57;;;;;;;10.63;9.53;;;10.00;99.90;;;;;;5046257;28;20213;-76
2022/04/26 05:37:25;;;;;;;12.77;9.80;;;10.00;99.90;;;;;;5053025;28;20201;-76
2022/04/26 05:39:52;;;;;;;12.00;9.67;;;10.20;99.90;;;;;;5048298;28;20565;-76
2022/04/26 05:42:20;;;;;;;11.20;9.70;;;10.00;99.90;;;;;;5048701;28;20680;-76
2022/04/26 05:44:52;;;;;;;11.17;9.73;;;10.10;99.90;;;;;;5061967;28;20197;-77
2022/04/26 05:47:21;;;;;;;12.63;9.87;;;10.10;99.90;;;;;;5046649;28;20201;-76
2022/04/26 05:49:57;;;;;;;12.83;9.63;;;10.00;99.90;;;;;;5054568;28;20205;-76
2022/04/26 05:52:39;;;;;;;13.20;9.73;;;10.00;99.90;;;;;;5047004;28;20226;-76
2022/04/26 05:55:08;;;;;;;12.33;10.07;;;9.90;99.90;;;;;;5044898;28;20221;-76
2022/04/26 05:57:38;;;;;;;10.27;9.00;;;10.00;99.90;;;;;;5067085;28;20198;-76
2022/04/26 06:00:19;;;;;;;10.27;9.00;;;10.00;99.90;;;;;;5046471;28;20537;-77
2022/04/26 06:02:48;;;;;;;12.10;10.70;;;10.10;99.90;;;;;;5044919;28;20209;-76
2022/04/26 06:05:17;;;;;;;14.50;10.87;;;10.10;99.90;;;;;;5052657;28;20201;-77
2022/04/26 06:07:44;;;;;;;11.73;10.03;;;10.10;99.90;;;;;;5051845;28;20206;-77
2022/04/26 06:10:12;;;;;;;13.53;10.57;;;10.20;99.90;;;;;;5064878;28;20205;-77
2022/04/26 06:12:42;;;;;;;14.23;10.60;;;10.20;99.90;;;;;;5046990;28;20230;-77
2022/04/26 06:15:10;;;;;;;15.20;11.33;;;10.20;99.90;;;;;;5064891;28;20207;-76
2022/04/26 06:17:45;;;;;;;13.07;10.73;;;10.10;99.90;;;;;;5049472;28;20206;-76
2022/04/26 06:20:16;;;;;;;11.83;9.90;;;10.20;99.90;;;;;;5061510;28;20201;-76
2022/04/26 06:22:46;;;;;;;14.40;11.27;;;10.30;99.90;;;;;;5043713;28;20198;-76
2022/04/26 06:25:13;;;;;;;12.77;11.47;;;10.40;99.90;;;;;;5048672;28;20202;-76
2022/04/26 06:27:41;;;;;;;13.17;10.77;;;10.50;99.90;;;;;;5051390;28;20202;-76
2022/04/26 06:30:42;;;;;;;13.43;11.00;;;10.60;99.90;;;;;;5051117;28;20198;-76
2022/04/26 06:33:09;;;;;;;14.23;10.70;;;10.50;99.90;;;;;;5049440;28;20212;-76
2022/04/26 06:35:37;;;;;;;14.33;10.87;;;10.50;99.90;;;;;;5057901;28;20210;-76
2022/04/26 06:38:07;;;;;;;14.07;11.13;;;10.50;99.90;;;;;;5046723;28;20572;-75
2022/04/26 06:40:46;;;;;;;14.10;11.83;;;10.40;99.90;;;;;;5058271;28;20205;-77
2022/04/26 06:43:14;;;;;;;15.03;11.27;;;10.40;99.90;;;;;;5044192;28;20202;-77
2022/04/26 06:45:41;;;;;;;12.93;10.60;;;10.30;99.90;;;;;;5049601;28;20209;-76
2022/04/26 06:48:09;;;;;;;14.57;11.67;;;10.30;99.90;;;;;;5046173;28;20213;-76
2022/04/26 06:50:37;;;;;;;13.70;12.07;;;10.50;99.90;;;;;;5042543;28;20198;-76
2022/04/26 06:53:04;;;;;;;14.20;11.63;;;10.60;99.90;;;;;;5047969;28;20215;-77
2022/04/26 06:55:33;;;;;;;15.83;13.37;;;10.60;99.90;;;;;;5048594;28;20218;-76
2022/04/26 06:58:01;;;;;;;16.53;13.23;;;10.50;99.90;;;;;;5030625;28;20316;-77
2022/04/26 07:00:29;;;;;;;18.03;13.60;;;10.40;99.90;;;;;;5043572;28;20199;-77
2022/04/26 07:02:56;;;;;;;19.00;13.53;;;10.40;99.90;;;;;;5039145;28;20194;-76
2022/04/26 07:05:25;;;;;;;18.40;12.90;;;10.50;99.90;;;;;;5042375;28;20202;-76
2022/04/26 07:08:26;;;;;;;16.80;13.17;;;10.60;99.90;;;;;;5054285;28;20195;-76
2022/04/26 07:10:55;;;;;;;17.80;14.40;;;10.70;99.90;;;;;;5044566;28;20221;-76
2022/04/26 07:13:22;;;;;;;15.83;13.27;;;10.60;99.90;;;;;;5041959;28;20821;-77
2022/04/26 07:15:53;;;;;;;15.70;13.77;;;10.70;99.90;;;;;;5050412;28;20187;-76
2022/04/26 07:18:20;;;;;;;17.00;13.20;;;10.60;99.90;;;;;;5041934;28;20213;-76
2022/04/26 07:21:00;;;;;;;16.87;14.17;;;10.60;99.90;;;;;;5064410;28;20214;-77
2022/04/26 07:23:28;;;;;;;17.07;15.13;;;10.70;99.90;;;;;;5057269;28;20203;-77
2022/04/26 07:25:57;;;;;;;21.47;17.17;;;10.60;99.90;;;;;;5047617;28;20668;-77
2022/04/26 07:28:25;;;;;;;23.03;19.47;;;10.60;99.90;;;;;;5047945;28;20232;-77
2022/04/26 07:30:53;;;;;;;22.23;18.27;;;10.50;99.90;;;;;;5046282;28;20221;-76
2022/04/26 07:36:10;;;;;;;24.67;21.27;;;10.90;99.90;;;;;;5034008;28;20537;-77
2022/04/26 07:38:38;;;;;;;22.67;19.33;;;10.80;99.90;;;;;;5057095;28;20206;-76
2022/04/26 07:42:02;;;;;;;30.43;22.70;;;10.90;99.90;;;;;;5055867;28;20313;-77
2022/04/26 07:44:31;;;;;;;27.03;22.27;;;11.10;99.90;;;;;;5048981;28;20194;-76
2022/04/26 07:47:00;;;;;;;24.43;19.83;;;11.00;99.90;;;;;;5049231;28;20198;-76
2022/04/26 07:49:27;;;;;;;25.87;19.33;;;11.30;99.90;;;;;;5049006;28;20212;-77
2022/04/26 07:51:55;;;;;;;24.40;19.57;;;11.40;99.90;;;;;;5065514;28;20226;-77
2022/04/26 07:54:23;;;;;;;21.03;18.03;;;11.50;99.90;;;;;;5041099;28;20225;-76
2022/04/26 07:56:52;;;;;;;23.10;19.17;;;11.70;99.90;;;;;;5044283;28;20218;-77
2022/04/26 07:59:19;;;;;;;19.53;17.50;;;11.90;99.90;;;;;;5044910;28;20197;-77
2022/04/26 08:01:55;;;;;;;23.27;18.67;;;11.90;99.90;;;;;;5065423;28;20248;-76
2022/04/26 08:04:23;;;;;;;19.97;17.43;;;11.90;99.90;;;;;;5048675;28;20552;-77
2022/04/26 08:06:55;;;;;;;24.57;19.07;;;11.90;99.90;;;;;;5050219;28;20206;-76
2022/04/26 08:09:22;;;;;;;22.13;18.70;;;11.90;99.90;;;;;;5065096;28;20202;-77
2022/04/26 08:11:50;;;;;;;20.03;17.50;;;12.00;99.90;;;;;;5065076;28;20226;-76
2022/04/26 08:14:20;;;;;;;24.03;19.07;;;12.10;99.90;;;;;;5043860;28;20221;-76
2022/04/26 08:16:47;;;;;;;22.63;18.60;;;12.00;99.90;;;;;;5058293;28;20210;-77
2022/04/26 08:19:16;;;;;;;21.83;18.27;;;12.10;99.90;;;;;;5041918;28;20195;-76
2022/04/26 08:21:50;;;;;;;21.40;18.30;;;11.80;99.90;;;;;;5019408;28;20241;-77
2022/04/26 08:29:53;;;;;;;19.73;16.80;;;12.10;99.90;;;;;;5048786;28;20217;-77
2022/04/26 08:32:20;;;;;;;19.47;17.37;;;12.20;99.90;;;;;;5065429;28;20245;-76
2022/04/26 08:34:51;;;;;;;21.88;17.88;;;12.10;99.90;;;;;;5048531;28;20229;-76
2022/04/26 08:37:18;;;;;;;22.08;18.63;;;11.80;99.90;;;;;;5040334;28;20195;-76
2022/04/26 08:39:52;;;;;;;20.33;17.93;;;11.90;99.90;;;;;;5048517;28;20198;-77
2022/04/26 08:42:43;;;;;;;21.53;17.40;;;11.90;99.90;;;;;;5050966;28;20571;-78
2022/04/26 08:45:14;;;;;;;21.10;17.13;;;12.00;99.90;;;;;;5050305;28;20191;-77
2022/04/26 08:53:18;;;;;;;20.37;18.10;;;12.20;99.90;;;;;;5047267;28;20207;-79
2022/04/26 08:55:48;;;;;;;19.92;17.83;;;12.30;99.90;;;;;;5051306;28;20222;-79
2022/04/26 08:58:18;;;;;;;19.83;16.50;;;12.30;99.90;;;;;;5068665;28;20572;-78
2022/04/26 09:01:11;;;;;;;21.23;17.67;;;12.30;99.90;;;;;;5050773;28;20715;-79
2022/04/26 09:03:41;;;;;;;18.48;16.10;;;12.40;99.90;;;;;;5043307;28;20687;-78
2022/04/26 09:06:17;;;;;;;20.08;16.80;;;12.30;99.90;;;;;;5049755;28;20202;-79
2022/04/26 09:08:49;;;;;;;19.60;16.63;;;12.20;99.90;;;;;;5048685;28;20202;-78
2022/04/26 09:11:27;;;;;;;19.42;17.33;;;12.30;99.90;;;;;;5048842;28;20605;-78
2022/04/26 09:13:55;;;;;;;19.80;16.27;;;12.20;99.90;;;;;;5051841;28;20194;-78
2022/04/26 09:16:24;;;;;;;20.47;16.30;;;12.20;99.90;;;;;;5049457;28;20223;-78
2022/04/26 09:18:57;;;;;;;21.83;17.00;;;12.30;99.90;;;;;;5064101;28;20206;-78
2022/04/26 09:21:29;;;;;;;18.87;15.93;;;12.30;99.90;;;;;;5068621;28;20229;-80
2022/04/26 09:24:00;;;;;;;18.13;16.17;;;12.50;99.90;;;;;;5068182;28;20195;-78
2022/04/26 09:26:35;;;;;;;18.67;16.67;;;12.60;99.90;;;;;;5050178;28;20189;-78
2022/04/26 09:29:04;;;;;;;18.52;16.52;;;12.60;99.90;;;;;;5044679;28;20198;-78
2022/04/26 09:31:33;;;;;;;21.90;17.73;;;12.80;99.90;;;;;;5066219;28;20230;-78
2022/04/26 09:34:07;;;;;;;24.63;17.90;;;13.00;99.90;;;;;;5050239;28;20202;-78
2022/04/26 09:36:45;;;;;;;18.83;16.77;;;12.80;99.90;;;;;;5048691;28;20210;-78
2022/04/26 09:39:17;;;;;;;19.23;17.20;;;12.90;99.90;;;;;;5043900;28;20194;-78
2022/04/26 09:41:52;;;;;;;20.60;17.17;;;13.10;99.90;;;;;;5045157;28;20222;-78
2022/04/26 09:44:31;;;;;;;18.92;16.67;;;13.10;99.90;;;;;;5047865;28;20190;-76
2022/04/26 09:46:59;;;;;;;18.08;16.00;;;13.30;99.90;;;;;;5043316;28;20198;-78
2022/04/26 09:49:27;;;;;;;19.50;16.30;;;13.30;99.90;;;;;;5050181;28;20186;-77
2022/04/26 09:51:59;;;;;;;18.70;16.33;;;13.30;99.90;;;;;;5053436;28;20231;-77
2022/04/26 09:54:27;;;;;;;18.58;16.33;;;13.30;99.90;;;;;;5045190;28;20213;-77
2022/04/26 09:56:54;;;;;;;18.67;16.15;;;13.40;99.90;;;;;;5044831;28;20210;-76
2022/04/26 09:59:28;;;;;;;19.88;16.92;;;13.40;99.90;;;;;;5047602;28;20265;-77
2022/04/26 10:01:57;;;;;;;18.77;16.23;;;13.40;99.90;;;;;;5042474;28;20591;-78
2022/04/26 10:04:26;;;;;;;18.73;16.77;;;13.40;99.90;;;;;;5046707;28;20203;-77
2022/04/26 10:06:58;;;;;;;18.85;16.65;;;13.50;99.90;;;;;;5049616;28;20194;-78
2022/04/26 10:09:28;;;;;;;19.40;16.65;;;13.50;99.90;;;;;;5049626;28;20198;-79
2022/04/26 10:11:58;;;;;;;19.40;17.30;;;13.70;99.90;;;;;;5057783;28;20222;-77
2022/04/26 10:14:28;;;;;;;18.08;16.13;;;13.90;99.90;;;;;;5050479;28;20205;-78
2022/04/26 10:17:00;;;;;;;18.83;16.83;;;14.00;99.90;;;;;;5040673;28;20221;-77
2022/04/26 10:19:39;;;;;;;19.45;17.05;;;13.90;99.90;;;;;;5049129;28;20190;-77
2022/04/26 10:22:08;;;;;;;20.38;17.58;;;14.10;99.90;;;;;;5049717;28;20218;-78
2022/04/26 10:24:38;;;;;;;19.48;17.48;;;14.30;99.90;;;;;;5057573;28;20214;-77
2022/04/26 10:27:20;;;;;;;19.83;17.75;;;14.50;99.90;;;;;;5063592;28;20198;-77
2022/04/26 10:29:47;;;;;;;20.17;17.90;;;14.40;99.90;;;;;;5046059;28;20195;-77
2022/04/26 10:32:29;;;;;;;19.75;17.70;;;14.40;99.90;;;;;;5039168;28;20696;-77
2022/04/26 10:35:31;;;;;;;20.02;17.75;;;14.60;99.90;;;;;;5046828;28;20191;-77
2022/04/26 10:38:12;;;;;;;19.25;16.75;;;14.80;99.90;;;;;;5047128;28;20407;-77
2022/04/26 10:41:10;;;;;;;19.42;17.30;;;15.00;99.90;;;;;;5045558;28;20213;-76
2022/04/26 10:43:37;;;;;;;19.27;16.77;;;15.00;99.90;;;;;;5046291;28;20225;-76
2022/04/26 10:46:13;;;;;;;19.67;16.80;;;14.90;99.90;;;;;;5048085;28;20203;-77
2022/04/26 10:48:41;;;;;;;18.33;16.42;;;14.90;99.90;;;;;;5045703;28;20202;-76
2022/04/26 10:51:31;;;;;;;19.35;17.27;;;15.00;99.90;;;;;;5051066;28;20210;-77
2022/04/26 10:53:59;;;;;;;18.02;16.13;;;15.30;99.90;;;;;;5045650;28;20225;-77
2022/04/26 10:56:28;;;;;;;22.02;17.38;;;15.40;99.90;;;;;;5047378;28;20225;-77
2022/04/26 10:58:58;;;;;;;19.13;17.20;;;15.40;99.90;;;;;;5043395;28;20205;-77
2022/04/26 11:01:30;;;;;;;18.55;16.60;;;15.30;99.90;;;;;;5052507;28;20230;-80
2022/04/26 11:03:59;;;;;;;19.83;17.50;;;15.40;99.90;;;;;;5039930;28;20514;-77
2022/04/26 11:06:33;;;;;;;19.42;17.15;;;15.30;99.90;;;;;;5057719;28;20203;-79
2022/04/26 11:09:11;;;;;;;18.25;16.40;;;15.40;99.90;;;;;;5044529;28;20190;-78
2022/04/26 11:11:50;;;;;;;17.63;15.75;;;15.60;98.80;;;;;;5045783;28;20222;-78
2022/04/26 11:14:19;;;;;;;16.58;14.80;;;15.50;97.70;;;;;;5044987;28;20194;-77
2022/04/26 11:16:57;;;;;;;18.48;15.82;;;15.10;97.30;;;;;;5049484;28;20214;-77
2022/04/26 11:19:29;;;;;;;17.23;15.15;;;15.20;97.90;;;;;;5047927;28;20191;-77
2022/04/26 11:21:57;;;;;;;17.48;15.65;;;15.10;98.20;;;;;;5047798;28;20218;-77
2022/04/26 11:29:58;;;;;;;19.27;16.30;;;15.00;99.90;;;;;;5047507;28;20201;-77
2022/04/26 11:32:42;;;;;;;18.02;16.27;;;14.90;99.90;;;;;;5047213;28;20225;-77
2022/04/26 11:35:11;;;;;;;22.58;18.30;;;14.80;99.90;;;;;;5043839;28;20198;-78
2022/04/26 11:37:44;;;;;;;17.15;15.38;;;15.20;99.90;;;;;;5038986;28;20218;-77
2022/04/26 11:40:21;;;;;;;18.80;16.90;;;15.60;99.90;;;;;;5042182;28;20210;-77
2022/04/26 11:42:50;;;;;;;18.58;16.60;;;15.60;99.30;;;;;;5045923;28;20224;-77
2022/04/26 11:45:18;;;;;;;18.45;16.48;;;15.40;99.30;;;;;;5045084;28;20245;-77
2022/04/26 11:47:48;;;;;;;21.35;17.10;;;15.40;99.50;;;;;;5047031;28;20198;-78
2022/04/26 11:50:18;;;;;;;19.98;17.85;;;15.30;99.50;;;;;;5047156;28;20209;-78
2022/04/26 11:53:00;;;;;;;19.77;17.70;;;15.10;99.30;;;;;;5055736;28;20234;-77
2022/04/26 11:55:29;;;;;;;20.20;18.10;;;14.90;99.10;;;;;;5045062;28;20202;-77
2022/04/26 11:58:23;;;;;;;19.45;17.20;;;14.90;99.00;;;;;;5050429;28;20223;-77
2022/04/26 12:00:55;;;;;;;20.08;17.95;;;14.90;98.80;;;;;;5028903;28;20238;-76
2022/04/26 12:03:49;;;;;;;20.98;18.77;;;14.90;99.90;;;;;;5047600;28;20191;-77
2022/04/26 12:06:18;;;;;;;22.90;20.60;;;15.20;99.90;;;;;;5048898;28;20195;-77
2022/04/26 12:08:48;;;;;;;21.73;19.70;;;15.20;99.90;;;;;;5045259;28;20662;-77
2022/04/26 12:11:18;;;;;;;23.45;21.05;;;15.10;99.90;;;;;;5047525;28;20222;-77
2022/04/26 12:13:58;;;;;;;22.42;20.20;;;15.10;99.90;;;;;;5046031;28;20214;-77
2022/04/26 12:16:28;;;;;;;23.13;21.00;;;15.10;99.90;;;;;;5059888;28;20222;-77
2022/04/26 12:19:03;;;;;;;22.33;20.08;;;15.00;99.90;;;;;;5062368;28;20553;-77
2022/04/26 12:21:44;;;;;;;22.02;19.73;;;15.10;99.70;;;;;;5047385;28;20232;-76
2022/04/26 12:24:15;;;;;;;21.13;19.05;;;15.20;99.60;;;;;;5021635;28;20687;-77
2022/04/26 12:26:52;;;;;;;20.63;18.73;;;15.40;98.30;;;;;;5033234;28;20194;-77
2022/04/26 12:29:21;;;;;;;20.35;18.42;;;15.60;98.10;;;;;;5032704;28;20206;-77
2022/04/26 12:31:50;;;;;;;19.80;17.73;;;15.70;97.50;;;;;;5042529;28;20219;-77
2022/04/26 12:34:19;;;;;;;20.00;17.90;;;15.60;97.30;;;;;;5033925;28;20597;-77
2022/04/26 12:37:00;;;;;;;18.88;16.88;;;15.60;96.90;;;;;;5048356;28;20290;-78
2022/04/26 12:39:40;;;;;;;18.13;16.40;;;15.60;96.30;;;;;;5029890;28;20213;-77
2022/04/26 12:42:08;;;;;;;19.33;17.48;;;15.70;96.90;;;;;;5031435;28;20219;-77
2022/04/26 12:44:57;;;;;;;19.00;17.27;;;15.70;96.80;;;;;;5048125;28;20211;-78
2022/04/26 12:50:31;;;;;;;18.15;16.38;;;15.50;96.20;;;;;;5029210;28;20190;-77
2022/04/26 12:53:01;;;;;;;20.13;18.02;;;15.50;96.50;;;;;;5027052;28;20210;-77
2022/04/26 12:55:31;;;;;;;18.95;17.15;;;15.30;96.60;;;;;;5030605;28;20207;-78
2022/04/26 12:58:00;;;;;;;18.88;16.98;;;15.40;97.40;;;;;;5031093;28;20219;-78
2022/04/26 13:00:29;;;;;;;16.38;14.77;;;15.30;96.30;;;;;;5032141;28;20681;-76
2022/04/26 13:02:59;;;;;;;17.60;15.88;;;15.40;96.20;;;;;;5030269;28;20200;-76
2022/04/26 13:05:36;;;;;;;19.15;17.23;;;15.40;96.40;;;;;;5013733;28;20210;-78
2022/04/26 13:08:06;;;;;;;19.85;17.85;;;15.40;96.80;;;;;;5013455;28;20220;-77
2022/04/26 13:10:33;;;;;;;20.38;18.38;;;15.10;96.40;;;;;;5014239;28;20203;-77
2022/04/26 13:13:01;;;;;;;20.77;18.70;;;14.90;97.00;;;;;;5024408;28;20195;-76
2022/04/26 13:15:30;;;;;;;19.52;17.67;;;14.80;98.00;;;;;;5043936;28;20207;-79
2022/04/26 13:17:59;;;;;;;21.05;19.13;;;14.80;97.70;;;;;;5024162;28;20590;-78
2022/04/26 13:20:27;;;;;;;21.85;19.75;;;14.70;97.50;;;;;;5023898;28;20195;-78
2022/04/26 13:22:54;;;;;;;21.95;19.83;;;14.60;98.70;;;;;;5040910;28;20204;-79
2022/04/26 13:25:22;;;;;;;23.70;21.40;;;14.50;99.90;;;;;;5018168;28;20554;-79
2022/04/26 13:27:49;;;;;;;25.63;21.95;;;14.30;99.90;;;;;;5040452;28;20206;-79
2022/04/26 13:30:18;;;;;;;25.80;23.27;;;14.30;99.90;;;;;;5023020;28;20195;-79
2022/04/26 13:32:47;;;;;;;26.67;24.00;;;14.30;99.90;;;;;;5045091;28;20732;-79
2022/04/26 13:35:25;;;;;;;27.77;25.00;;;14.40;99.90;;;;;;5036056;28;20203;-79
2022/04/26 13:37:52;;;;;;;29.42;26.60;;;14.40;99.90;;;;;;5027952;28;20211;-78
2022/04/26 13:40:20;;;;;;;27.70;24.98;;;14.30;99.90;;;;;;5038216;28;20199;-80
2022/04/26 13:42:47;;;;;;;25.48;23.00;;;14.20;99.90;;;;;;5021441;28;20239;-80
2022/04/26 13:45:26;;;;;;;22.75;20.55;;;14.00;99.90;;;;;;5032765;28;20206;-79
2022/04/26 13:47:55;;;;;;;23.35;20.95;;;13.90;99.90;;;;;;5024364;28;20222;-79
2022/04/26 13:50:22;;;;;;;22.10;19.83;;;13.70;99.90;;;;;;5029686;28;20203;-79
2022/04/26 13:52:50;;;;;;;22.17;19.92;;;13.70;99.90;;;;;;5041528;28;20669;-78
2022/04/26 13:55:18;;;;;;;22.55;20.40;;;13.70;99.90;;;;;;5029625;28;20210;-79
2022/04/26 13:57:46;;;;;;;23.50;21.20;;;13.70;99.90;;;;;;5023118;28;20230;-78
2022/04/26 14:00:15;;;;;;;23.83;21.35;;;13.80;99.90;;;;;;5030979;28;20203;-78
2022/04/26 14:02:46;;;;;;;23.67;21.27;;;14.00;99.90;;;;;;5025961;28;20238;-78
2022/04/26 14:05:15;;;;;;;22.65;20.30;;;13.70;99.90;;;;;;5034300;28;20206;-79
2022/04/26 14:07:43;;;;;;;14.07;12.75;;;13.90;99.90;;;;;;5046599;28;20187;-79
2022/04/26 14:10:11;;;;;;;21.73;19.58;;;14.50;99.90;;;;;;5024657;28;20585;-78
2022/04/26 14:12:38;;;;;;;22.52;20.13;;;14.40;99.90;;;;;;5036927;28;20222;-80
2022/04/26 14:23:34;;;;;;;23.75;21.45;;;13.80;99.90;;;;;;5031312;28;20691;-81
2022/04/26 14:26:03;;;;;;;23.63;21.13;;;13.80;99.90;;;;;;5025013;28;20272;-80
2022/04/26 14:28:31;;;;;;;24.60;22.08;;;13.80;99.90;;;;;;5026538;28;20191;-80
2022/04/26 14:30:58;;;;;;;24.95;22.35;;;13.90;99.90;;;;;;5030044;28;20219;-79
2022/04/26 14:33:26;;;;;;;25.15;22.65;;;13.80;99.90;;;;;;5044403;28;20206;-79
2022/04/26 14:35:54;;;;;;;23.95;21.63;;;13.90;99.90;;;;;;5041787;28;20207;-80
2022/04/26 14:38:33;;;;;;;26.33;23.73;;;14.00;99.90;;;;;;5028098;28;20222;-80
2022/04/26 14:41:00;;;;;;;24.48;21.88;;;13.90;99.90;;;;;;5030244;28;20218;-80
2022/04/26 14:43:28;;;;;;;24.30;21.88;;;14.00;99.90;;;;;;5028385;28;20199;-80
2022/04/26 14:45:55;;;;;;;25.02;22.67;;;14.00;99.90;;;;;;5026443;28;20194;-81
2022/04/26 14:48:23;;;;;;;25.17;22.77;;;13.90;99.90;;;;;;5047306;28;20199;-80
2022/04/26 14:50:52;;;;;;;28.17;25.33;;;14.00;99.90;;;;;;5027752;28;20211;-80
2022/04/26 14:53:22;;;;;;;26.65;24.02;;;13.80;99.90;;;;;;5026604;28;20209;-80
2022/04/26 14:55:52;;;;;;;29.25;26.33;;;13.80;99.90;;;;;;5026946;28;20219;-81
2022/04/26 14:58:20;;;;;;;27.15;24.58;;;13.80;99.90;;;;;;5025650;28;20210;-81
2022/04/26 15:00:47;;;;;;;27.98;25.17;;;14.00;99.90;;;;;;5022429;28;20225;-81
2022/04/26 15:03:15;;;;;;;28.33;25.50;;;14.10;99.90;;;;;;5033741;28;20672;-81
2022/04/26 15:05:46;;;;;;;27.40;24.73;;;14.20;99.90;;;;;;5033842;28;20203;-81
2022/04/26 15:11:00;;;;;;;27.38;24.65;;;14.00;99.90;;;;;;5030930;28;20253;-80
2022/04/26 15:16:38;;;;;;;38.55;31.30;;;14.10;99.90;;;;;;5030554;28;20643;-79
2022/04/26 15:19:06;;;;;;;33.20;28.13;;;14.20;99.90;;;;;;5014929;28;20211;-79
2022/04/26 15:21:53;;;;;;;28.27;25.27;;;14.40;99.90;;;;;;5031792;28;20214;-80
2022/04/26 15:24:22;;;;;;;20.92;18.80;;;14.50;99.90;;;;;;5027626;28;20292;-85
2022/04/26 15:26:51;;;;;;;352.50;116.63;;;14.20;99.90;;;;;;5021446;28;20210;-78
2022/04/26 15:29:19;;;;;;;463.05;164.98;;;14.40;99.90;;;;;;5023861;28;20549;-80
2022/04/26 15:31:47;;;;;;;80.30;37.95;;;14.10;99.90;;;;;;5024628;28;20216;-80
2022/04/26 15:34:14;;;;;;;242.45;95.18;;;14.10;99.90;;;;;;5035349;28;20195;-80
2022/04/26 15:36:41;;;;;;;116.13;48.40;;;14.20;99.90;;;;;;5029888;28;20195;-81
2022/04/26 15:39:12;;;;;;;83.22;38.17;;;14.10;99.90;;;;;;5027246;28;20207;-81
2022/04/26 15:41:39;;;;;;;30.83;17.48;;;14.10;99.90;;;;;;5033852;28;20245;-80
2022/04/26 15:44:08;;;;;;;15.27;13.15;;;13.60;99.90;;;;;;5044507;28;20589;-80
2022/04/26 15:46:36;;;;;;;28.65;18.20;;;13.70;99.90;;;;;;5026889;28;20680;-80
2022/04/26 15:49:03;;;;;;;13.00;11.75;;;14.20;99.90;;;;;;5029173;28;20194;-80
2022/04/26 15:51:31;;;;;;;13.98;12.63;;;13.60;99.90;;;;;;5037474;28;20215;-79
2022/04/26 15:54:00;;;;;;;14.02;12.63;;;13.20;99.90;;;;;;5030344;28;20203;-78
2022/04/26 15:56:27;;;;;;;13.20;11.90;;;13.00;99.90;;;;;;5031060;28;20559;-81
2022/04/26 15:58:55;;;;;;;14.27;12.98;;;13.10;99.90;;;;;;5014616;28;20211;-79
2022/04/26 16:01:33;;;;;;;13.35;12.07;;;13.00;99.90;;;;;;5039731;28;20214;-79
2022/04/26 16:04:02;;;;;;;13.40;12.20;;;12.80;99.90;;;;;;5034942;28;20191;-80
2022/04/26 16:06:30;;;;;;;14.10;12.60;;;13.00;99.90;;;;;;5049106;28;20232;-80
2022/04/26 16:20:54;;;;;;;16.02;14.52;;;12.80;99.90;;;;;;5026525;28;20286;-78
2022/04/26 16:23:40;;;;;;;14.55;13.10;;;12.90;99.90;;;;;;5027297;28;20568;-78
2022/04/26 16:26:13;;;;;;;15.50;13.98;;;13.00;99.90;;;;;;5043451;28;20206;-78
2022/04/26 16:28:40;;;;;;;14.82;13.43;;;12.70;99.90;;;;;;5023675;28;20203;-79
2022/04/26 16:31:08;;;;;;;15.35;13.82;;;12.60;99.90;;;;;;5022719;28;20231;-78
2022/04/26 16:33:37;;;;;;;15.55;14.10;;;12.70;99.90;;;;;;5032241;28;20198;-78
2022/04/26 16:36:05;;;;;;;16.33;14.63;;;12.70;99.90;;;;;;5031608;28;20195;-80
2022/04/26 16:38:32;;;;;;;15.57;14.07;;;12.80;99.90;;;;;;5046316;28;20237;-77
2022/04/26 16:41:07;;;;;;;16.23;14.63;;;12.80;99.90;;;;;;5042857;28;20217;-78
2022/04/26 16:43:34;;;;;;;16.98;15.18;;;13.00;99.90;;;;;;5024100;28;20195;-77
2022/04/26 16:46:03;;;;;;;16.73;15.02;;;13.10;99.90;;;;;;5043027;28;20206;-81
2022/04/26 16:48:30;;;;;;;15.73;14.43;;;13.30;99.90;;;;;;5045739;28;20202;-80
2022/04/26 16:50:59;;;;;;;16.23;14.63;;;13.30;99.90;;;;;;5032337;28;20221;-80
2022/04/26 16:53:27;;;;;;;17.38;15.80;;;13.40;99.90;;;;;;5031725;28;20203;-81
2022/04/26 16:55:55;;;;;;;17.23;15.45;;;13.10;99.90;;;;;;5032586;28;20196;-80
2022/04/26 16:58:23;;;;;;;16.95;15.35;;;12.90;99.90;;;;;;5030068;28;20215;-80
2022/04/26 17:00:54;;;;;;;17.75;16.05;;;13.00;99.90;;;;;;5028043;28;20227;-80
2022/04/26 17:03:22;;;;;;;16.27;14.68;;;13.20;99.90;;;;;;5051413;28;20555;-80
2022/04/26 17:05:49;;;;;;;16.25;14.55;;;13.50;99.90;;;;;;5029888;28;20220;-81
2022/04/26 17:08:19;;;;;;;16.45;14.95;;;13.90;99.90;;;;;;5033558;28;20206;-80
2022/04/26 17:10:48;;;;;;;14.93;13.63;;;14.20;99.90;;;;;;5031712;28;20216;-81
2022/04/26 17:13:16;;;;;;;15.25;13.85;;;14.40;99.90;;;;;;5046326;28;20778;-83